Time;durP1;ratioP1;P1;durP2;ratioP2;P2;SDS_P1;SDS_P2;PMS_P1;PMS_P2;Temp;Humidity;BMP_temperature;BMP_pressure;BME280_temperature;BME280_humidity;BME280_pressure;Samples;Min_cycle;Max_cycle;Signal;HPM_P1;HPM_P2
2023/02/20 00:00:27;;;;;;;35.03;15.05;;;11.40;82.20;;;;;;7407002;19;20014;-80
2023/02/20 00:02:59;;;;;;;32.00;14.43;;;11.40;82.10;;;;;;7388528;19;20010;-80
2023/02/20 00:05:28;;;;;;;39.33;15.55;;;11.40;82.20;;;;;;7385020;19;20002;-80
2023/02/20 00:07:56;;;;;;;35.08;14.20;;;11.30;82.30;;;;;;7385112;19;20370;-80
2023/02/20 00:10:25;;;;;;;32.45;15.27;;;11.30;82.30;;;;;;7387906;19;20361;-80
2023/02/20 00:12:54;;;;;;;31.42;14.50;;;11.30;82.20;;;;;;7384592;19;20011;-80
2023/02/20 00:15:23;;;;;;;40.10;16.40;;;11.20;82.30;;;;;;7406681;19;20015;-80
2023/02/20 00:17:52;;;;;;;38.88;14.38;;;11.20;82.40;;;;;;7387802;19;20098;-80
2023/02/20 00:20:26;;;;;;;39.80;15.55;;;11.20;82.50;;;;;;7384993;19;20010;-80
2023/02/20 00:22:55;;;;;;;37.30;15.48;;;11.20;82.30;;;;;;7385314;19;20003;-80
2023/02/20 00:25:24;;;;;;;33.65;15.57;;;11.20;82.30;;;;;;7384572;19;20002;-80
2023/02/20 00:27:55;;;;;;;39.05;15.95;;;11.10;82.20;;;;;;7383900;19;20366;-80
2023/02/20 00:30:26;;;;;;;34.22;14.02;;;11.20;82.40;;;;;;7405751;19;20011;-80
2023/02/20 00:32:57;;;;;;;34.85;14.68;;;11.20;82.40;;;;;;7384295;19;20016;-81
2023/02/20 00:35:29;;;;;;;35.28;14.07;;;11.20;81.70;;;;;;7387999;19;20003;-80
2023/02/20 00:37:58;;;;;;;37.72;15.88;;;11.20;81.80;;;;;;7385418;19;20015;-80
2023/02/20 00:40:27;;;;;;;38.47;14.68;;;11.10;82.00;;;;;;7384651;19;20270;-80
2023/02/20 00:42:56;;;;;;;38.17;14.27;;;11.10;82.30;;;;;;7382719;19;20020;-80
2023/02/20 00:45:25;;;;;;;35.50;15.52;;;11.10;81.90;;;;;;7403502;19;20244;-80
2023/02/20 00:47:54;;;;;;;44.58;16.83;;;11.10;81.70;;;;;;7384772;19;20003;-80
2023/02/20 00:50:22;;;;;;;35.55;16.70;;;11.00;81.70;;;;;;7383610;19;20033;-80
2023/02/20 00:52:54;;;;;;;43.00;16.48;;;10.90;82.20;;;;;;7383329;19;19998;-80
2023/02/20 00:55:23;;;;;;;38.53;16.92;;;10.90;82.50;;;;;;7382281;19;20381;-80
2023/02/20 00:57:51;;;;;;;29.48;13.93;;;10.80;82.50;;;;;;7381729;19;20760;-80
2023/02/20 01:00:23;;;;;;;40.95;15.23;;;10.80;82.70;;;;;;7403349;19;20011;-80
2023/02/20 01:02:52;;;;;;;34.67;15.02;;;10.80;82.60;;;;;;7382739;19;20007;-80
2023/02/20 01:05:21;;;;;;;42.88;15.50;;;10.80;82.60;;;;;;7384213;19;20091;-80
2023/02/20 01:07:50;;;;;;;32.63;15.23;;;10.80;82.80;;;;;;7381733;19;20128;-80
2023/02/20 01:10:21;;;;;;;39.75;16.73;;;10.80;82.90;;;;;;7383411;19;20014;-80
2023/02/20 01:12:53;;;;;;;;;;;10.70;83.00;;;;;;7382101;19;20020;-80
2023/02/20 01:15:21;;;;;;;39.35;16.20;;;10.70;83.20;;;;;;7403556;19;19946;-80
2023/02/20 01:17:50;;;;;;;45.45;17.88;;;10.70;83.10;;;;;;7381496;19;20283;-80
2023/02/20 01:20:19;;;;;;;42.00;17.67;;;10.60;83.00;;;;;;7381808;19;20378;-80
2023/02/20 01:22:48;;;;;;;41.08;16.40;;;10.50;83.20;;;;;;7383665;19;20010;-80
2023/02/20 01:25:17;;;;;;;39.83;15.80;;;10.50;83.40;;;;;;7381563;19;20002;-80
2023/02/20 01:27:48;;;;;;;42.80;16.98;;;10.50;83.30;;;;;;7381316;19;20346;-80
2023/02/20 01:30:18;;;;;;;40.47;17.30;;;10.50;83.50;;;;;;7402108;19;20011;-80
2023/02/20 01:32:46;;;;;;;43.00;17.65;;;10.40;83.70;;;;;;7382110;19;20047;-80
2023/02/20 01:35:16;;;;;;;41.85;16.75;;;10.40;83.90;;;;;;7381399;19;20386;-80
2023/02/20 01:37:45;;;;;;;34.95;14.38;;;10.40;83.60;;;;;;7382274;19;20496;-80
2023/02/20 01:40:18;;;;;;;36.05;15.57;;;10.40;84.20;;;;;;7381155;19;20033;-80
2023/02/20 01:42:49;;;;;;;46.25;15.73;;;10.50;83.30;;;;;;7380408;19;20005;-80
2023/02/20 01:45:29;;;;;;;42.22;16.73;;;10.40;83.30;;;;;;7401367;19;20238;-80
2023/02/20 01:47:58;;;;;;;41.40;16.60;;;10.40;83.50;;;;;;7382192;19;20314;-80
2023/02/20 01:50:31;;;;;;;40.55;16.70;;;10.40;83.50;;;;;;7380259;19;20016;-80
2023/02/20 01:53:04;;;;;;;45.67;16.42;;;10.40;83.60;;;;;;7380897;19;20369;-80
2023/02/20 01:55:37;;;;;;;35.55;15.20;;;10.40;83.70;;;;;;7380601;19;20095;-80
2023/02/20 01:58:12;;;;;;;42.92;17.15;;;10.30;83.80;;;;;;7382414;19;20002;-80
2023/02/20 02:00:41;;;;;;;40.53;15.70;;;10.40;83.60;;;;;;7379339;19;20231;-80
2023/02/20 02:03:12;;;;;;;42.95;17.02;;;10.30;83.50;;;;;;7400926;19;20039;-80
2023/02/20 02:05:45;;;;;;;43.85;16.77;;;10.30;83.80;;;;;;7384619;19;20006;-80
2023/02/20 02:08:16;;;;;;;33.40;16.58;;;10.30;83.80;;;;;;7381190;19;20011;-80
2023/02/20 02:10:52;;;;;;;42.45;17.25;;;10.20;83.60;;;;;;7380562;19;20006;-80
2023/02/20 02:13:24;;;;;;;42.75;17.63;;;10.20;83.70;;;;;;7382194;19;20420;-80
2023/02/20 02:15:57;;;;;;;44.20;16.80;;;10.20;83.60;;;;;;7380636;19;20007;-80
2023/02/20 02:18:47;;;;;;;38.80;16.45;;;10.10;83.70;;;;;;7401406;19;19999;-80
2023/02/20 02:21:56;;;;;;;35.85;16.05;;;10.10;84.00;;;;;;7388622;19;20007;-80
2023/02/20 02:24:51;;;;;;;31.45;15.63;;;10.00;84.30;;;;;;7287088;19;2005243;-80
2023/02/20 02:27:51;;;;;;;57.40;17.33;;;10.00;84.60;;;;;;7409578;19;20033;-80
2023/02/20 02:30:51;;;;;;;42.90;16.50;;;9.90;83.90;;;;;;7387885;19;20011;-80
2023/02/20 02:33:58;;;;;;;34.20;16.33;;;9.90;83.70;;;;;;7387730;19;20010;-80
2023/02/20 02:36:57;;;;;;;36.67;15.82;;;9.90;83.70;;;;;;7285630;19;2004479;-80
2023/02/20 02:39:35;;;;;;;37.40;14.57;;;9.90;83.80;;;;;;7411938;19;20224;-80
2023/02/20 02:42:10;;;;;;;32.92;13.40;;;10.00;83.90;;;;;;7388786;19;20003;-80
2023/02/20 02:44:45;;;;;;;34.10;12.93;;;10.00;83.60;;;;;;7387068;19;20010;-80
2023/02/20 02:47:21;;;;;;;32.85;13.77;;;10.10;83.30;;;;;;7388713;19;20007;-81
2023/02/20 02:49:58;;;;;;;36.38;14.20;;;10.10;83.00;;;;;;7387381;19;20015;-80
2023/02/20 02:55:27;;;;;;;41.00;15.75;;;10.20;82.80;;;;;;7383599;19;20079;-80
2023/02/20 02:57:56;;;;;;;41.00;15.80;;;10.10;82.70;;;;;;7383373;19;20003;-80
2023/02/20 03:00:28;;;;;;;41.03;15.32;;;10.10;82.80;;;;;;7408327;19;20014;-80
2023/02/20 03:03:01;;;;;;;45.13;14.38;;;10.10;82.40;;;;;;7384386;19;20010;-80
2023/02/20 03:05:45;;;;;;;33.05;14.98;;;10.10;82.70;;;;;;7383996;19;20007;-79
2023/02/20 03:08:29;;;;;;;35.58;14.57;;;10.10;82.70;;;;;;7383822;19;20027;-80
2023/02/20 03:11:01;;;;;;;46.53;15.38;;;10.00;82.80;;;;;;7384529;19;20010;-80
2023/02/20 03:16:20;;;;;;;38.25;14.73;;;10.00;82.80;;;;;;7383647;19;20007;-80
2023/02/20 03:18:50;;;;;;;32.90;14.00;;;10.00;83.00;;;;;;7384115;19;20716;-80
2023/02/20 03:21:22;;;;;;;35.17;15.88;;;10.00;83.20;;;;;;7405586;19;20018;-80
2023/02/20 03:23:57;;;;;;;35.55;14.50;;;10.00;83.30;;;;;;7382420;19;20002;-80
2023/02/20 03:26:33;;;;;;;33.85;14.40;;;10.00;82.70;;;;;;7383087;19;20030;-80
2023/02/20 03:29:09;;;;;;;28.63;13.65;;;10.00;82.10;;;;;;7382219;19;20006;-80
2023/02/20 03:31:43;;;;;;;30.98;13.52;;;10.00;82.10;;;;;;7383298;19;20003;-80
2023/02/20 03:45:18;;;;;;;36.60;13.40;;;9.90;82.50;;;;;;7405034;19;20007;-80
2023/02/20 03:47:51;;;;;;;31.35;13.32;;;9.80;82.70;;;;;;7384374;19;20100;-80
2023/02/20 03:50:21;;;;;;;35.80;14.10;;;9.80;82.20;;;;;;7384548;19;19998;-80
2023/02/20 03:52:50;;;;;;;34.78;13.55;;;9.80;82.40;;;;;;7384144;19;20007;-80
2023/02/20 03:55:23;;;;;;;29.67;12.50;;;9.70;82.50;;;;;;7382391;19;20002;-80
2023/02/20 03:57:55;;;;;;;28.33;13.13;;;9.70;82.70;;;;;;7385417;19;20022;-81
2023/02/20 04:00:28;;;;;;;34.65;13.50;;;9.70;82.60;;;;;;7406993;19;20003;-80
2023/02/20 04:03:04;;;;;;;38.60;14.25;;;9.70;82.20;;;;;;7385234;19;20031;-79
2023/02/20 04:05:38;;;;;;;29.35;14.15;;;9.70;82.20;;;;;;7383153;19;20358;-79
2023/02/20 04:08:11;;;;;;;31.90;14.38;;;9.70;82.40;;;;;;7383897;19;20011;-79
2023/02/20 04:10:46;;;;;;;30.17;13.43;;;9.70;82.20;;;;;;7384253;19;20007;-79
2023/02/20 04:13:17;;;;;;;32.90;13.57;;;9.60;82.40;;;;;;7382979;19;20343;-79
2023/02/20 04:15:46;;;;;;;46.60;15.18;;;9.60;82.40;;;;;;7383980;19;20259;-79
2023/02/20 04:18:18;;;;;;;30.60;14.30;;;9.60;82.40;;;;;;7403612;19;20014;-79
2023/02/20 04:20:47;;;;;;;30.15;12.85;;;9.60;83.00;;;;;;7385114;19;20108;-79
2023/02/20 04:23:18;;;;;;;32.72;13.00;;;9.50;83.00;;;;;;7383681;19;20071;-79
2023/02/20 04:25:54;;;;;;;35.80;13.30;;;9.60;82.80;;;;;;7383260;19;20011;-80
2023/02/20 04:28:24;;;;;;;32.72;12.95;;;9.50;82.50;;;;;;7382669;19;20240;-79
2023/02/20 04:30:53;;;;;;;31.00;14.30;;;9.50;82.80;;;;;;7383052;19;20226;-79
2023/02/20 04:33:23;;;;;;;35.53;14.40;;;9.50;82.90;;;;;;7404221;19;20013;-79
2023/02/20 04:35:52;;;;;;;37.60;14.00;;;9.40;83.00;;;;;;7382155;19;20358;-79
2023/02/20 04:38:21;;;;;;;31.70;12.65;;;9.30;83.10;;;;;;7383854;19;20007;-79
2023/02/20 04:40:53;;;;;;;39.42;13.85;;;9.20;83.20;;;;;;7382922;19;20007;-79
2023/02/20 04:43:22;;;;;;;31.25;13.45;;;9.20;83.30;;;;;;7381914;19;20016;-79
2023/02/20 04:45:51;;;;;;;38.50;13.90;;;9.20;83.60;;;;;;7382043;19;20028;-79
2023/02/20 04:48:20;;;;;;;29.30;12.05;;;9.20;84.10;;;;;;7404958;19;20007;-80
2023/02/20 04:50:49;;;;;;;31.73;13.43;;;9.20;84.00;;;;;;7382184;19;20402;-79
2023/02/20 04:53:18;;;;;;;36.55;13.45;;;9.20;83.80;;;;;;7383828;19;20207;-79
2023/02/20 04:55:46;;;;;;;35.53;13.40;;;9.10;83.70;;;;;;7382903;19;20006;-79
2023/02/20 04:58:18;;;;;;;34.25;13.20;;;9.10;83.80;;;;;;7381766;19;20410;-79
2023/02/20 05:00:46;;;;;;;;;;;9.10;83.90;;;;;;7381792;19;20025;-79
2023/02/20 05:03:15;;;;;;;32.28;12.63;;;9.10;84.20;;;;;;7402429;19;19907;-79
2023/02/20 05:05:44;;;;;;;35.20;13.18;;;9.10;84.20;;;;;;7381516;19;20007;-79
2023/02/20 05:08:12;;;;;;;34.47;12.80;;;9.10;84.20;;;;;;7381705;19;20016;-79
2023/02/20 05:10:41;;;;;;;35.33;13.40;;;9.10;84.40;;;;;;7382392;19;20010;-79
2023/02/20 05:13:10;;;;;;;30.17;12.35;;;9.10;84.30;;;;;;7381450;19;20022;-79
2023/02/20 05:15:42;;;;;;;26.85;11.93;;;9.10;84.40;;;;;;7380018;19;20007;-79
2023/02/20 05:18:10;;;;;;;;;;;9.10;84.10;;;;;;7402851;19;20010;-79
2023/02/20 05:23:20;;;;;;;32.65;11.35;;;9.20;83.80;;;;;;7382399;19;20082;-79
2023/02/20 05:25:49;;;;;;;32.60;11.32;;;9.20;83.40;;;;;;7381610;19;20024;-79
2023/02/20 05:28:17;;;;;;;29.63;11.57;;;9.10;83.00;;;;;;7380912;19;20003;-79
2023/02/20 05:30:49;;;;;;;28.45;10.60;;;9.10;83.00;;;;;;7380363;19;20026;-79
2023/02/20 05:33:18;;;;;;;29.05;10.77;;;9.10;83.30;;;;;;7401789;19;20006;-79
2023/02/20 05:35:47;;;;;;;28.75;10.10;;;9.10;83.00;;;;;;7379946;19;20006;-79
2023/02/20 05:38:19;;;;;;;27.50;10.68;;;9.10;83.00;;;;;;7380797;19;20010;-79
2023/02/20 05:40:47;;;;;;;33.08;9.63;;;9.10;83.30;;;;;;7381421;19;20033;-79
2023/02/20 05:43:18;;;;;;;27.95;10.25;;;9.10;83.10;;;;;;7379797;19;20010;-79
2023/02/20 05:45:49;;;;;;;22.92;9.85;;;9.10;83.20;;;;;;7379335;19;20030;-79
2023/02/20 05:48:18;;;;;;;;;;;9.20;83.00;;;;;;7403140;19;20043;-79
2023/02/20 05:50:49;;;;;;;28.52;11.00;;;9.20;82.40;;;;;;7384159;19;19942;-79
2023/02/20 05:53:18;;;;;;;31.75;11.55;;;9.20;82.10;;;;;;7380905;19;20011;-79
2023/02/20 05:55:46;;;;;;;38.45;11.50;;;9.20;82.40;;;;;;7384703;19;20007;-79
2023/02/20 05:58:15;;;;;;;38.30;11.20;;;9.20;82.60;;;;;;7387186;19;20003;-79
2023/02/20 06:00:44;;;;;;;20.67;10.63;;;9.20;82.30;;;;;;7388663;19;20097;-79
2023/02/20 06:03:16;;;;;;;31.08;11.75;;;9.20;82.00;;;;;;7406847;19;20007;-79
2023/02/20 06:05:45;;;;;;;26.45;11.60;;;9.20;82.00;;;;;;7387678;19;20012;-78
2023/02/20 06:08:14;;;;;;;44.50;12.35;;;9.10;82.30;;;;;;7387486;19;20006;-79
2023/02/20 06:10:43;;;;;;;30.60;11.48;;;9.10;82.70;;;;;;7388193;19;19999;-79
2023/02/20 06:13:12;;;;;;;36.58;11.25;;;9.10;82.70;;;;;;7388391;19;20027;-79
2023/02/20 06:15:40;;;;;;;32.55;11.90;;;9.20;82.60;;;;;;7385127;19;20014;-79
2023/02/20 06:18:09;;;;;;;30.60;10.82;;;9.10;82.30;;;;;;7406325;19;20020;-79
2023/02/20 06:20:40;;;;;;;29.35;11.80;;;9.10;82.30;;;;;;7387153;19;20006;-79
2023/02/20 06:23:09;;;;;;;27.83;11.18;;;9.10;82.70;;;;;;7387058;19;20006;-81
2023/02/20 06:25:38;;;;;;;32.03;11.55;;;9.00;83.10;;;;;;7386603;19;20026;-79
2023/02/20 06:28:07;;;;;;;31.77;11.15;;;9.00;83.10;;;;;;7385297;19;20007;-79
2023/02/20 06:30:36;;;;;;;30.27;12.55;;;8.90;83.50;;;;;;7384868;19;20095;-79
2023/02/20 06:33:04;;;;;;;26.70;10.52;;;8.90;83.70;;;;;;7406301;19;20002;-79
2023/02/20 06:35:33;;;;;;;25.60;10.85;;;8.80;83.70;;;;;;7385599;19;20015;-79
2023/02/20 06:38:05;;;;;;;31.27;10.90;;;8.80;84.00;;;;;;7386240;19;20369;-79
2023/02/20 06:40:33;;;;;;;29.85;10.60;;;8.80;84.20;;;;;;7386365;19;20030;-79
2023/02/20 06:43:02;;;;;;;28.98;10.63;;;8.80;84.40;;;;;;7384747;19;20033;-79
2023/02/20 06:45:31;;;;;;;27.48;11.00;;;8.70;84.20;;;;;;7391676;19;20381;-79
2023/02/20 06:48:00;;;;;;;29.48;10.85;;;8.70;84.30;;;;;;7405856;19;20002;-79
2023/02/20 06:50:28;;;;;;;23.25;10.85;;;8.70;84.40;;;;;;7387042;19;20015;-80
2023/02/20 06:52:57;;;;;;;29.13;10.63;;;8.70;84.60;;;;;;7385350;19;20015;-79
2023/02/20 06:55:29;;;;;;;26.10;10.57;;;8.70;84.60;;;;;;7386469;19;20018;-79
2023/02/20 06:57:58;;;;;;;27.73;11.05;;;8.70;84.30;;;;;;7384051;19;20389;-79
2023/02/20 07:00:27;;;;;;;29.33;10.27;;;8.60;84.30;;;;;;7405659;19;20003;-79
2023/02/20 07:02:56;;;;;;;29.90;9.27;;;8.70;84.00;;;;;;7385740;19;20350;-79
2023/02/20 07:05:25;;;;;;;18.80;8.50;;;8.70;83.70;;;;;;7384986;19;20006;-79
2023/02/20 07:07:53;;;;;;;28.77;10.10;;;8.70;83.90;;;;;;7385629;19;20006;-79
2023/02/20 07:10:22;;;;;;;24.83;8.80;;;8.70;84.10;;;;;;7384318;19;20038;-79
2023/02/20 07:12:54;;;;;;;23.45;8.60;;;8.80;84.10;;;;;;7386491;19;20419;-79
2023/02/20 07:15:22;;;;;;;24.17;8.15;;;8.80;83.90;;;;;;7404865;19;20047;-79
2023/02/20 07:17:51;;;;;;;35.67;9.30;;;8.80;83.90;;;;;;7386726;19;20382;-80
2023/02/20 07:20:20;;;;;;;27.02;9.40;;;8.90;83.60;;;;;;7385905;19;20006;-79
2023/02/20 07:22:53;;;;;;;28.20;9.98;;;8.90;83.30;;;;;;7386385;19;20058;-79
2023/02/20 07:25:21;;;;;;;25.00;9.27;;;8.90;83.20;;;;;;7386359;19;20006;-80
2023/02/20 07:27:53;;;;;;;33.92;10.27;;;8.90;83.30;;;;;;7384619;19;20037;-80
2023/02/20 07:30:23;;;;;;;22.63;10.40;;;9.00;83.60;;;;;;7405124;19;20003;-80
2023/02/20 07:32:52;;;;;;;28.55;11.02;;;9.00;83.30;;;;;;7385150;19;20010;-80
2023/02/20 07:35:21;;;;;;;27.75;10.85;;;9.00;83.30;;;;;;7384371;19;19998;-80
2023/02/20 07:37:50;;;;;;;30.65;11.52;;;9.00;83.30;;;;;;7384853;19;20006;-80
2023/02/20 07:40:18;;;;;;;22.10;10.93;;;9.10;83.60;;;;;;7383918;19;20006;-80
2023/02/20 07:42:47;;;;;;;27.20;10.68;;;9.10;83.90;;;;;;7384623;19;20007;-80
2023/02/20 07:45:19;;;;;;;26.20;10.90;;;9.10;83.80;;;;;;7404664;19;20696;-80
2023/02/20 07:47:47;;;;;;;;;;;9.20;83.60;;;;;;7385452;19;20091;-80
2023/02/20 07:50:16;;;;;;;30.33;10.45;;;9.20;83.60;;;;;;7383606;19;19946;-80
2023/02/20 07:52:46;;;;;;;51.70;11.52;;;9.20;84.00;;;;;;7384671;19;20350;-80
2023/02/20 07:55:17;;;;;;;27.42;11.20;;;9.20;84.40;;;;;;7384864;19;20026;-80
2023/02/20 07:57:49;;;;;;;29.40;10.38;;;9.20;84.50;;;;;;7386916;19;20003;-81
2023/02/20 08:03:33;;;;;;;25.98;11.18;;;9.30;84.60;;;;;;7384920;19;19915;-83
2023/02/20 08:06:03;;;;;;;27.10;10.75;;;9.40;84.90;;;;;;7385272;19;20034;-82
2023/02/20 08:28:19;;;;;;;38.47;12.50;;;9.70;87.40;;;;;;7384986;19;20014;-84
2023/02/20 08:51:47;;;;;;;104.43;59.80;;;10.10;90.00;;;;;;7313434;19;20011;-81
2023/02/20 10:29:36;;;;;;;;;;;;;;;;;;;;;
2023/02/20 11:08:33;;;;;;;21.15;5.63;;;12.20;93.40;;;;;;7381948;19;20018;-83
2023/02/20 13:46:52;;;;;;;;;;;;;;;;;;;;;
2023/02/20 17:19:46;;;;;;;22.63;6.13;;;13.60;86.10;;;;;;7360190;19;20011;-83
2023/02/20 18:07:05;;;;;;;11.98;5.15;;;12.50;87.60;;;;;;7260691;19;2004335;-79
2023/02/20 18:09:35;;;;;;;19.50;5.30;;;12.50;87.40;;;;;;7380142;19;20027;-80
